Time;durP1;ratioP1;P1;durP2;ratioP2;P2;SDS_P1;SDS_P2;PMS_P1;PMS_P2;Temp;Humidity;BMP_temperature;BMP_pressure;BME280_temperature;BME280_humidity;BME280_pressure;Samples;Min_cycle;Max_cycle;Signal;HPM_P1;HPM_P2
2023/03/29 00:02:09;;;;;;;4.45;3.10;;;;;;;3.10;75.19;99269.31;1687810;84;21240;-57
2023/03/29 00:05:16;;;;;;;3.58;3.10;;;;;;;3.06;75.21;99262.51;1688013;84;21220;-57
2023/03/29 00:08:23;;;;;;;3.20;2.90;;;;;;;3.02;75.16;99263.34;1687686;85;21304;-57
2023/03/29 00:11:30;;;;;;;4.05;3.30;;;;;;;2.98;75.17;99276.81;1687673;85;21240;-56
2023/03/29 00:14:36;;;;;;;3.20;2.90;;;;;;;2.94;75.15;99270.52;1688111;84;21256;-56
2023/03/29 00:17:42;;;;;;;3.20;2.90;;;;;;;2.92;75.20;99274.73;1688477;84;21349;-57
2023/03/29 00:20:48;;;;;;;3.20;2.90;;;;;;;2.91;75.21;99270.84;1688119;84;21235;-55
2023/03/29 00:23:54;;;;;;;3.27;2.70;;;;;;;2.88;75.21;99277.41;1687965;85;21749;-56
2023/03/29 00:27:00;;;;;;;3.20;2.90;;;;;;;2.85;75.19;99271.46;1687835;84;21430;-56
2023/03/29 00:30:05;;;;;;;3.42;2.72;;;;;;;2.83;75.24;99280.21;1685754;84;21316;-57
2023/03/29 00:33:13;;;;;;;3.77;3.05;;;;;;;2.84;75.30;99287.30;1687906;85;21240;-56
2023/03/29 00:36:22;;;;;;;4.20;3.30;;;;;;;2.83;75.30;99283.77;1659282;85;21223;-56
2023/03/29 00:39:29;;;;;;;4.53;3.90;;;;;;;2.83;75.32;99291.02;1697573;84;21220;-56
2023/03/29 00:42:35;;;;;;;3.85;3.35;;;;;;;2.83;75.33;99301.34;1682460;85;21221;-56
2023/03/29 00:45:41;;;;;;;3.75;3.40;;;;;;;2.81;75.28;99305.18;1625911;86;21267;-56
2023/03/29 00:48:47;;;;;;;3.60;3.30;;;;;;;2.80;75.30;99307.55;1665794;86;21232;-55
2023/03/29 00:51:52;;;;;;;3.27;2.98;;;;;;;2.79;75.32;99319.37;1690116;84;21244;-56
2023/03/29 00:55:01;;;;;;;5.45;3.47;;;;;;;2.76;75.27;99319.64;1660778;86;21229;-58
2023/03/29 00:58:07;;;;;;;3.45;3.15;;;;;;;2.73;75.25;99328.91;1686580;84;21279;-57
2023/03/29 01:01:18;;;;;;;5.92;3.60;;;;;;;2.68;75.22;99325.81;1666239;85;21205;-57
2023/03/29 01:04:35;;;;;;;3.33;2.90;;;;;;;2.67;75.23;99330.02;1684931;85;21304;-57
2023/03/29 01:07:56;;;;;;;4.95;3.08;;;;;;;2.66;75.30;99323.76;1688265;84;21212;-56
2023/03/29 01:11:10;;;;;;;2.52;2.33;;;;;;;2.70;75.36;99328.36;1688717;84;21247;-56
2023/03/29 01:14:39;;;;;;;2.60;2.40;;;;;;;2.65;75.26;99320.72;1685147;85;21232;-57
2023/03/29 01:17:54;;;;;;;2.30;2.10;;;;;;;2.60;75.22;99318.14;1688560;84;21347;-57
2023/03/29 01:21:43;;;;;;;2.52;1.90;;;;;;;2.56;75.20;99312.67;1688084;84;21263;-57
2023/03/29 01:25:01;;;;;;;;;;;;;;;2.51;75.17;99309.09;1690703;85;21260;-57
2023/03/29 01:28:17;;;;;;;2.50;1.90;;;;;;;2.43;75.13;99308.13;1654200;86;20548;-57
2023/03/29 01:31:31;;;;;;;3.00;2.27;;;;;;;2.39;75.23;99314.84;1690508;84;21287;-57
2023/03/29 01:34:45;;;;;;;2.52;2.20;;;;;;;2.38;75.27;99320.73;1666268;86;21253;-56
2023/03/29 01:38:06;;;;;;;2.47;2.17;;;;;;;2.39;75.32;99321.11;1660698;86;21337;-57
2023/03/29 01:41:12;;;;;;;2.52;2.30;;;;;;;2.40;75.37;99318.75;1692530;84;21224;-56
2023/03/29 01:44:22;;;;;;;2.90;2.30;;;;;;;2.40;75.41;99321.45;1668731;84;21212;-57
2023/03/29 01:48:07;;;;;;;2.87;2.30;;;;;;;2.41;75.42;99338.51;1687314;83;21227;-55
2023/03/29 01:51:18;;;;;;;2.35;2.10;;;;;;;2.39;75.35;99329.70;1681386;84;21256;-55
2023/03/29 01:54:30;;;;;;;3.20;2.22;;;;;;;2.34;75.33;99338.74;1688020;84;21239;-57
2023/03/29 01:57:36;;;;;;;2.40;2.08;;;;;;;2.31;75.35;99346.66;1683723;85;21454;-55
2023/03/29 02:00:36;;;;;;;2.27;2.00;;;;;;;2.29;75.36;99344.59;1677518;85;21399;-56
2023/03/29 02:03:32;;;;;;;2.67;2.05;;;;;;;2.32;75.39;99345.64;1697392;84;21350;-56
2023/03/29 02:06:39;;;;;;;2.85;2.27;;;;;;;2.30;75.38;99354.91;1689926;85;21390;-56
2023/03/29 02:09:46;;;;;;;2.95;2.12;;;;;;;2.28;75.41;99370.39;1682080;84;21350;-56
2023/03/29 02:12:52;;;;;;;1.82;1.70;;;;;;;2.30;75.47;99364.35;1661089;85;21205;-58
2023/03/29 02:16:01;;;;;;;2.52;1.90;;;;;;;2.33;75.51;99358.66;1691691;84;21221;-56
2023/03/29 02:19:08;;;;;;;2.72;1.80;;;;;;;2.34;75.52;99367.09;1688143;84;21260;-56
2023/03/29 02:22:16;;;;;;;2.70;1.77;;;;;;;2.33;75.47;99365.41;1690352;84;21240;-56
2023/03/29 02:25:23;;;;;;;2.37;1.92;;;;;;;2.28;75.43;99376.66;1679518;84;21217;-55
2023/03/29 02:28:29;;;;;;;1.70;1.60;;;;;;;2.25;75.40;99378.79;1661450;86;21205;-57
2023/03/29 02:31:51;;;;;;;3.35;1.90;;;;;;;2.21;75.38;99382.77;1676796;85;21403;-56
2023/03/29 02:35:13;;;;;;;2.40;1.75;;;;;;;2.19;75.37;99386.14;1673605;85;21229;-56
2023/03/29 02:38:19;;;;;;;2.47;2.05;;;;;;;2.11;75.44;99388.20;1682447;85;21253;-56
2023/03/29 02:41:25;;;;;;;2.45;1.80;;;;;;;2.11;75.44;99388.20;1681917;85;21296;-55
2023/03/29 02:44:37;;;;;;;2.22;1.70;;;;;;;2.09;75.40;99406.90;1672978;85;21225;-56
2023/03/29 02:47:47;;;;;;;2.10;1.70;;;;;;;2.07;75.43;99404.84;1666174;84;21216;-56
2023/03/29 02:50:53;;;;;;;2.02;1.70;;;;;;;2.08;75.49;99409.26;1649913;85;21358;-56
2023/03/29 02:54:07;;;;;;;3.90;2.12;;;;;;;2.07;75.51;99408.88;1656070;86;21196;-56
2023/03/29 02:57:14;;;;;;;2.47;1.70;;;;;;;2.10;75.53;99416.69;1656885;85;21224;-57
2023/03/29 03:00:24;;;;;;;2.20;1.60;;;;;;;2.05;75.44;99413.57;1656439;86;21365;-58
2023/03/29 03:03:30;;;;;;;2.80;1.90;;;;;;;2.05;75.50;99429.27;1656155;86;21216;-56
2023/03/29 03:06:37;;;;;;;2.87;1.62;;;;;;;2.05;75.50;99427.92;1656147;86;21260;-57
2023/03/29 03:09:46;;;;;;;2.55;1.62;;;;;;;2.04;75.50;99434.82;1656375;86;21350;-58
2023/03/29 03:12:52;;;;;;;1.72;1.47;;;;;;;2.04;75.50;99426.72;1662434;86;21196;-58
2023/03/29 03:15:59;;;;;;;2.25;1.60;;;;;;;2.05;75.54;99437.86;1662573;86;21260;-58
2023/03/29 03:19:05;;;;;;;2.60;1.67;;;;;;;2.04;75.50;99441.56;1655929;85;21300;-59
2023/03/29 03:22:11;;;;;;;1.90;1.40;;;;;;;2.03;75.50;99439.88;1656010;86;21291;-57
2023/03/29 03:25:21;;;;;;;2.55;1.70;;;;;;;2.06;75.59;99451.20;1662725;86;21195;-57
2023/03/29 03:28:28;;;;;;;3.98;1.82;;;;;;;2.05;75.55;99448.66;1656221;86;21288;-56
2023/03/29 03:31:40;;;;;;;3.22;2.00;;;;;;;2.05;75.55;99455.40;1656790;86;21204;-58
2023/03/29 03:34:49;;;;;;;1.77;1.50;;;;;;;2.06;75.56;99447.67;1655701;86;21201;-57
2023/03/29 03:37:56;;;;;;;2.33;1.80;;;;;;;2.09;75.57;99460.87;1658941;84;21180;-56
2023/03/29 03:41:02;;;;;;;7.47;1.98;;;;;;;2.11;75.57;99468.34;1662560;86;21215;-58
2023/03/29 03:44:08;;;;;;;2.00;1.47;;;;;;;2.13;75.57;99479.81;1657828;85;21200;-58
2023/03/29 03:47:16;;;;;;;3.37;1.90;;;;;;;2.11;75.51;99480.48;1655885;85;21216;-57
2023/03/29 03:50:26;;;;;;;2.52;2.00;;;;;;;2.07;75.44;99483.10;1661884;84;21342;-56
2023/03/29 03:53:33;;;;;;;2.45;2.02;;;;;;;2.09;75.52;99481.13;1634353;88;21224;-57
2023/03/29 03:56:39;;;;;;;1.98;1.57;;;;;;;2.10;75.53;99485.02;1663419;84;21239;-57
2023/03/29 03:59:48;;;;;;;2.45;1.90;;;;;;;2.06;75.44;99490.86;1664015;84;21207;-58
2023/03/29 04:02:56;;;;;;;2.77;1.90;;;;;;;2.04;75.43;99500.94;1662818;86;21204;-57
2023/03/29 04:06:06;;;;;;;3.42;1.80;;;;;;;2.02;75.37;99498.38;1634528;88;21240;-57
2023/03/29 04:09:14;;;;;;;2.10;1.77;;;;;;;2.01;75.41;99503.44;1635045;86;21212;-55
2023/03/29 04:12:22;;;;;;;2.08;1.55;;;;;;;2.06;75.48;99521.37;1628352;86;21322;-57
2023/03/29 04:15:30;;;;;;;2.08;1.70;;;;;;;2.07;75.47;99512.80;1629307;86;21217;-57
2023/03/29 04:18:38;;;;;;;2.62;1.90;;;;;;;2.09;75.49;99504.06;1662682;85;21380;-57
2023/03/29 04:21:48;;;;;;;1.80;1.60;;;;;;;2.13;75.51;99524.36;1655872;85;21240;-56
2023/03/29 04:24:55;;;;;;;2.95;1.90;;;;;;;2.17;75.53;99540.12;1628611;86;21373;-57
2023/03/29 04:28:13;;;;;;;2.60;1.80;;;;;;;2.17;75.41;99535.23;1628113;86;21237;-57
2023/03/29 04:31:23;;;;;;;3.83;2.12;;;;;;;2.11;75.29;99523.67;1655685;85;21243;-56
2023/03/29 04:34:44;;;;;;;2.37;1.72;;;;;;;2.10;75.26;99532.74;1599782;89;21620;-57
2023/03/29 04:37:51;;;;;;;2.92;1.82;;;;;;;2.10;75.26;99544.89;1609989;87;21289;-57
2023/03/29 04:40:57;;;;;;;3.35;2.40;;;;;;;2.10;75.25;99562.44;1655307;86;21208;-57
2023/03/29 04:44:08;;;;;;;17.57;8.85;;;;;;;2.12;75.29;99571.25;1626346;86;21243;-57
2023/03/29 04:47:17;;;;;;;2.65;1.90;;;;;;;2.15;75.32;99565.56;1626284;87;21240;-58
2023/03/29 04:50:27;;;;;;;4.47;2.50;;;;;;;2.20;75.31;99576.79;1658208;84;21235;-57
2023/03/29 04:53:33;;;;;;;2.08;1.80;;;;;;;2.20;75.26;99597.03;1627091;88;21277;-57
2023/03/29 04:56:39;;;;;;;2.92;1.85;;;;;;;2.21;75.28;99598.73;1657072;85;21324;-58
2023/03/29 05:00:07;;;;;;;2.92;1.80;;;;;;;2.23;75.25;99584.60;1629986;86;21220;-59
2023/03/29 05:03:30;;;;;;;3.90;2.98;;;;;;;2.23;75.19;99574.66;1627280;88;21215;-58
2023/03/29 05:06:40;;;;;;;2.58;1.80;;;;;;;2.25;75.20;99570.47;1637630;85;22167;-57
2023/03/29 05:09:52;;;;;;;3.35;1.75;;;;;;;2.29;75.19;99574.57;1630427;86;21389;-57
2023/03/29 05:12:55;;;;;;;2.77;1.87;;;;;;;2.33;75.22;99583.59;1726203;78;21328;-58
2023/03/29 05:16:04;;;;;;;2.95;2.08;;;;;;;2.39;75.19;99619.98;1725498;81;21267;-57
2023/03/29 05:19:11;;;;;;;3.27;2.02;;;;;;;2.42;75.22;99603.48;1715846;83;22049;-59
2023/03/29 05:22:17;;;;;;;5.20;2.60;;;;;;;2.47;75.23;99602.56;1720099;82;21804;-59
2023/03/29 05:25:24;;;;;;;5.65;3.30;;;;;;;2.52;75.24;99608.39;1701946;82;21895;-60
2023/03/29 05:28:32;;;;;;;5.10;2.70;;;;;;;2.53;75.19;99616.35;1717702;83;21232;-60
2023/03/29 05:31:40;;;;;;;5.85;2.75;;;;;;;2.60;75.25;99612.58;1719301;82;21224;-61
2023/03/29 05:34:47;;;;;;;4.03;2.42;;;;;;;2.65;75.21;99608.92;1715437;83;22009;-61
2023/03/29 05:37:55;;;;;;;5.10;2.70;;;;;;;2.64;75.08;99608.58;1698814;83;21848;-60
2023/03/29 05:41:00;;;;;;;4.30;2.85;;;;;;;2.64;75.04;99612.63;1720036;82;21187;-59
2023/03/29 05:44:20;;;;;;;3.50;2.40;;;;;;;2.62;75.00;99619.53;1666731;82;21259;-60
2023/03/29 05:47:31;;;;;;;2.87;2.22;;;;;;;2.60;74.86;99617.46;1690570;83;21316;-59
2023/03/29 05:50:36;;;;;;;3.33;2.20;;;;;;;2.61;74.92;99620.53;1665218;84;21383;-59
2023/03/29 05:53:44;;;;;;;4.08;2.35;;;;;;;2.66;74.92;99634.95;1698738;83;21590;-59
2023/03/29 05:56:50;;;;;;;3.98;2.30;;;;;;;2.65;74.84;99642.69;1718565;83;21228;-59
2023/03/29 05:59:58;;;;;;;3.77;2.35;;;;;;;2.63;74.81;99634.73;1722142;83;21347;-59
2023/03/29 06:03:04;;;;;;;6.10;3.42;;;;;;;2.65;74.84;99654.36;1665813;85;21220;-61
2023/03/29 06:06:14;;;;;;;3.72;2.47;;;;;;;2.68;74.81;99651.89;1665089;84;21240;-59
2023/03/29 06:09:21;;;;;;;5.05;2.27;;;;;;;2.70;74.78;99662.89;1628869;84;21208;-59
2023/03/29 06:12:28;;;;;;;4.10;2.72;;;;;;;2.66;74.65;99652.52;1695398;80;21216;-60
2023/03/29 06:15:34;;;;;;;4.55;3.17;;;;;;;2.66;74.64;99663.32;1730756;82;21214;-60
2023/03/29 06:18:40;;;;;;;5.20;2.95;;;;;;;2.65;74.62;99654.84;1723130;82;21216;-59
2023/03/29 06:21:46;;;;;;;8.73;3.62;;;;;;;2.68;74.66;99669.45;1728300;83;21291;-59
2023/03/29 06:24:53;;;;;;;7.35;4.20;;;;;;;2.67;74.64;99660.48;1703497;83;21192;-59
2023/03/29 06:28:00;;;;;;;7.20;2.90;;;;;;;2.67;74.63;99675.34;1727115;83;21184;-60
2023/03/29 06:31:08;;;;;;;6.42;3.50;;;;;;;2.63;74.58;99677.12;1723446;82;21251;-60
2023/03/29 06:34:16;;;;;;;4.35;2.77;;;;;;;2.59;74.56;99687.36;1728050;83;21361;-58
2023/03/29 06:37:30;;;;;;;5.08;3.00;;;;;;;2.60;74.67;99690.40;1734325;82;21241;-60
2023/03/29 06:40:39;;;;;;;5.95;2.90;;;;;;;2.61;74.70;99683.16;1714759;82;21259;-60
2023/03/29 06:43:47;;;;;;;5.12;2.72;;;;;;;2.63;74.68;99689.28;1690135;84;21237;-59
2023/03/29 06:46:54;;;;;;;3.00;2.40;;;;;;;2.65;74.67;99685.42;1713678;83;21176;-60
2023/03/29 06:50:00;;;;;;;5.67;2.75;;;;;;;2.66;74.65;99695.22;1698593;84;21694;-59
2023/03/29 06:53:16;;;;;;;4.58;3.05;;;;;;;2.61;74.60;99699.36;1708927;82;21804;-61
2023/03/29 06:56:25;;;;;;;5.42;2.72;;;;;;;2.58;74.58;99705.05;1692530;84;21271;-61
2023/03/29 06:59:34;;;;;;;4.42;2.75;;;;;;;2.56;74.63;99707.91;1725980;81;21212;-60
2023/03/29 07:02:43;;;;;;;6.83;3.98;;;;;;;2.60;74.63;99720.63;1721212;83;21340;-60
2023/03/29 07:05:50;;;;;;;25.02;9.18;;;;;;;2.62;74.61;99710.52;1726398;81;21219;-60
2023/03/29 07:09:00;;;;;;;10.05;4.47;;;;;;;2.65;74.61;99721.90;1701625;83;21333;-61
2023/03/29 07:12:13;;;;;;;12.88;6.37;;;;;;;2.66;74.53;99734.92;1718189;83;21212;-60
2023/03/29 07:15:20;;;;;;;6.42;4.05;;;;;;;2.67;74.52;99737.97;1704301;82;21212;-60
2023/03/29 07:18:28;;;;;;;5.87;3.80;;;;;;;2.70;74.53;99739.03;1678105;83;21729;-60
2023/03/29 07:21:37;;;;;;;4.35;2.52;;;;;;;2.75;74.59;99747.08;1679417;85;21806;-61
2023/03/29 07:24:44;;;;;;;3.90;2.60;;;;;;;2.80;74.60;99746.65;1677102;84;21363;-60
2023/03/29 07:27:53;;;;;;;8.08;4.17;;;;;;;2.85;74.54;99765.48;1731838;82;21809;-61
2023/03/29 07:30:59;;;;;;;10.35;8.35;;;;;;;2.86;74.53;99778.50;1717452;83;21748;-58
2023/03/29 07:34:16;;;;;;;4.97;2.90;;;;;;;2.85;74.37;99759.24;1719317;82;21238;-59
2023/03/29 07:37:17;;;;;;;4.80;2.37;;;;;;;2.86;74.37;99790.66;1679078;85;21728;-59
2023/03/29 07:40:24;;;;;;;3.30;2.45;;;;;;;2.85;74.33;99818.18;1692424;84;21248;-60
2023/03/29 07:43:39;;;;;;;3.72;2.60;;;;;;;2.83;74.33;99803.11;1691766;84;21765;-59
2023/03/29 07:46:48;;;;;;;4.10;2.80;;;;;;;2.88;74.36;99807.60;1693167;83;21248;-58
2023/03/29 07:49:55;;;;;;;3.90;2.40;;;;;;;2.88;74.40;99808.95;1672932;84;21217;-60
2023/03/29 07:53:02;;;;;;;5.35;2.92;;;;;;;2.92;74.36;99815.77;1694301;84;21249;-58
2023/03/29 07:56:09;;;;;;;3.45;2.22;;;;;;;2.93;74.31;99816.15;1672848;84;21233;-58
2023/03/29 07:59:18;;;;;;;5.20;3.22;;;;;;;2.92;74.23;99826.09;1692445;83;21324;-59
2023/03/29 08:02:30;;;;;;;5.90;3.05;;;;;;;2.89;74.12;99826.87;1694164;84;21466;-58
2023/03/29 08:05:37;;;;;;;5.25;3.10;;;;;;;2.92;74.24;99834.20;1666932;84;21319;-58
2023/03/29 08:08:46;;;;;;;3.60;2.50;;;;;;;2.95;74.22;99854.19;1690934;84;21217;-59
2023/03/29 08:11:53;;;;;;;3.83;2.47;;;;;;;2.93;74.20;99858.88;1694290;83;21216;-59
2023/03/29 08:15:01;;;;;;;4.22;2.45;;;;;;;2.95;74.17;99860.08;1674120;80;21785;-58
2023/03/29 08:18:06;;;;;;;4.97;2.45;;;;;;;2.96;74.23;99860.46;1697189;84;21216;-58
2023/03/29 08:21:15;;;;;;;2.75;2.12;;;;;;;3.00;74.18;99857.81;1669652;84;21271;-59
2023/03/29 08:24:22;;;;;;;4.30;2.55;;;;;;;2.97;74.10;99865.73;1692180;84;21294;-66
2023/03/29 08:27:31;;;;;;;4.05;2.42;;;;;;;2.92;73.97;99868.48;1696581;83;21728;-58
2023/03/29 08:30:38;;;;;;;3.95;2.40;;;;;;;2.89;73.96;99868.27;1697953;83;21737;-58
2023/03/29 08:33:46;;;;;;;2.85;1.95;;;;;;;2.86;73.93;99863.64;1692541;84;21185;-59
2023/03/29 08:36:56;;;;;;;3.52;2.30;;;;;;;2.83;73.93;99889.11;1661863;84;21247;-58
2023/03/29 08:40:04;;;;;;;4.10;1.98;;;;;;;2.85;73.97;99867.34;1685649;84;21754;-57
2023/03/29 08:43:49;;;;;;;3.40;2.10;;;;;;;2.90;74.02;99885.36;1698182;83;21220;-59
2023/03/29 08:47:21;;;;;;;4.05;2.25;;;;;;;2.91;73.97;99878.45;1698797;83;21266;-58
2023/03/29 08:50:35;;;;;;;4.85;2.85;;;;;;;2.95;74.00;99878.52;1665333;85;21232;-58
2023/03/29 08:53:51;;;;;;;3.85;2.70;;;;;;;3.01;74.07;99892.81;1670662;86;21256;-57
2023/03/29 08:57:07;;;;;;;5.42;2.70;;;;;;;3.05;74.01;99912.33;1658985;84;21205;-60
2023/03/29 09:00:50;;;;;;;3.72;2.85;;;;;;;3.02;73.91;99906.72;1671148;84;21224;-60
2023/03/29 09:04:29;;;;;;;3.80;3.17;;;;;;;3.03;73.98;99894.03;1686077;85;21844;-59
2023/03/29 09:07:52;;;;;;;4.72;3.12;;;;;;;3.14;73.98;99900.66;1564520;90;21272;-60
2023/03/29 09:11:45;;;;;;;4.78;3.00;;;;;;;3.13;73.87;99902.16;1641970;86;21224;-60
2023/03/29 09:15:18;;;;;;;3.77;2.77;;;;;;;3.11;73.82;99898.23;1670906;84;21752;-58
2023/03/29 09:19:08;;;;;;;4.47;3.58;;;;;;;3.06;73.76;99907.27;1700122;84;21389;-60
2023/03/29 09:22:52;;;;;;;3.25;2.55;;;;;;;3.03;73.73;99901.66;1701738;83;21192;-59
2023/03/29 09:26:33;;;;;;;4.70;2.50;;;;;;;3.07;73.81;99929.27;1697921;84;21207;-60
2023/03/29 09:30:06;;;;;;;3.20;2.50;;;;;;;3.06;73.68;99899.16;1665904;86;21288;-60
2023/03/29 09:33:44;;;;;;;3.15;2.25;;;;;;;3.08;73.69;99898.52;1700322;84;21859;-60
2023/03/29 09:37:14;;;;;;;3.10;2.52;;;;;;;3.12;73.72;99904.02;1689583;84;21216;-58
2023/03/29 09:40:24;;;;;;;5.83;3.60;;;;;;;3.10;73.61;99931.69;1645005;83;21249;-58
2023/03/29 09:43:46;;;;;;;3.98;2.90;;;;;;;3.10;73.65;99924.94;1709357;82;21295;-59
2023/03/29 09:47:03;;;;;;;4.15;2.90;;;;;;;3.13;73.62;99911.13;1713111;83;21358;-59
2023/03/29 09:50:18;;;;;;;3.35;2.45;;;;;;;3.15;73.59;99930.78;1728236;83;21440;-60
2023/03/29 09:53:28;;;;;;;5.28;3.87;;;;;;;3.14;73.47;99949.85;1729550;83;21224;-59
2023/03/29 09:56:40;;;;;;;;;;;;;;;3.12;73.46;99935.61;1696586;83;21274;-59
2023/03/29 09:59:48;;;;;;;8.30;3.70;;;;;;;3.11;73.43;99934.73;1730044;81;20286;-59
2023/03/29 10:03:05;;;;;;;10.65;4.60;;;;;;;3.08;73.43;99933.19;1666033;86;21247;-58
2023/03/29 10:06:15;;;;;;;4.55;3.33;;;;;;;3.12;73.51;99941.88;1665808;86;21232;-59
2023/03/29 10:09:29;;;;;;;5.45;3.12;;;;;;;3.15;73.43;99947.49;1666004;86;21228;-59
2023/03/29 10:12:49;;;;;;;6.55;3.67;;;;;;;3.08;73.33;99955.30;1639384;86;21291;-64
2023/03/29 10:16:15;;;;;;;4.83;3.02;;;;;;;3.02;73.31;99954.52;1665371;86;21565;-65
2023/03/29 10:19:42;;;;;;;4.10;3.30;;;;;;;2.96;73.28;99957.78;1665625;86;21275;-64
2023/03/29 10:22:58;;;;;;;3.85;2.85;;;;;;;2.94;73.29;99959.27;1666365;86;21442;-62
2023/03/29 10:26:05;;;;;;;5.60;3.98;;;;;;;2.89;73.27;99965.58;1635900;86;21398;-62
2023/03/29 10:29:14;;;;;;;12.23;6.92;;;;;;;2.87;73.29;99962.67;1636245;87;21307;-61
2023/03/29 10:32:39;;;;;;;4.92;3.08;;;;;;;2.90;73.39;99957.81;1670862;84;21267;-62
2023/03/29 10:35:47;;;;;;;6.87;3.40;;;;;;;2.93;73.38;99967.52;1664881;85;21259;-62
2023/03/29 10:38:54;;;;;;;6.03;3.02;;;;;;;2.90;73.32;99963.73;1685837;84;21752;-60
2023/03/29 10:42:05;;;;;;;6.53;4.30;;;;;;;2.85;73.23;99963.29;1697831;82;21239;-60
2023/03/29 10:45:11;;;;;;;6.55;3.92;;;;;;;2.84;73.29;99981.83;1691988;83;21220;-60
2023/03/29 10:48:22;;;;;;;6.83;4.33;;;;;;;2.82;73.25;99979.78;1694983;84;21661;-60
2023/03/29 10:51:33;;;;;;;4.97;3.45;;;;;;;2.75;73.11;99988.06;1696282;83;21262;-63
2023/03/29 10:54:38;;;;;;;5.15;3.50;;;;;;;2.73;73.17;99994.95;1676715;84;21207;-57
2023/03/29 10:58:10;;;;;;;5.00;3.75;;;;;;;2.76;73.25;100011.38;1698303;84;21263;-57
2023/03/29 11:01:23;;;;;;;4.67;3.77;;;;;;;2.80;73.27;100015.55;1698948;83;21764;-56
2023/03/29 11:05:02;;;;;;;5.65;4.30;;;;;;;2.78;73.20;100021.57;1664194;86;21288;-56
2023/03/29 11:08:41;;;;;;;10.10;4.72;;;;;;;2.77;73.10;100055.00;1686500;84;21274;-56
2023/03/29 11:12:12;;;;;;;5.65;4.15;;;;;;;2.75;73.09;100054.27;1654799;85;21261;-58
2023/03/29 11:15:34;;;;;;;5.30;3.55;;;;;;;2.73;73.10;100058.46;1654731;85;21331;-57
2023/03/29 11:18:58;;;;;;;7.08;4.72;;;;;;;2.76;73.15;100053.27;1655982;80;21249;-56
2023/03/29 11:22:46;;;;;;;6.03;4.20;;;;;;;2.73;73.10;100056.24;1649427;85;21864;-57
2023/03/29 11:26:15;;;;;;;7.10;4.65;;;;;;;2.71;73.08;100044.73;1681550;84;21299;-57
2023/03/29 11:29:59;;;;;;;5.67;4.17;;;;;;;2.74;73.13;100041.77;1682063;84;21581;-57
2023/03/29 11:33:27;;;;;;;6.75;3.58;;;;;;;2.77;73.16;100048.25;1607892;89;21248;-57
2023/03/29 11:36:49;;;;;;;7.85;3.75;;;;;;;2.81;73.18;100068.59;1612432;86;21667;-57
2023/03/29 11:40:17;;;;;;;7.65;3.83;;;;;;;2.83;73.10;100063.91;1656227;86;21789;-57
2023/03/29 11:43:48;;;;;;;5.05;3.95;;;;;;;2.84;73.05;100062.43;1691056;85;21231;-56
2023/03/29 11:47:16;;;;;;;5.65;3.95;;;;;;;2.83;72.99;100072.89;1654091;85;21802;-56
2023/03/29 11:50:36;;;;;;;7.33;3.70;;;;;;;2.82;72.97;100078.44;1690939;84;22068;-58
2023/03/29 11:53:49;;;;;;;6.00;3.98;;;;;;;2.81;72.93;100097.84;1633837;87;21770;-57
2023/03/29 11:57:06;;;;;;;6.97;4.92;;;;;;;2.80;72.86;100097.97;1663092;85;21592;-58
2023/03/29 12:00:21;;;;;;;8.75;6.90;;;;;;;2.82;72.91;100101.41;1633218;86;21826;-60
2023/03/29 12:03:59;;;;;;;5.92;3.80;;;;;;;2.86;72.95;100098.30;1628736;88;21320;-58
2023/03/29 12:07:24;;;;;;;10.90;7.03;;;;;;;2.93;73.00;100108.08;1614498;87;21245;-57
2023/03/29 12:10:35;;;;;;;10.45;5.42;;;;;;;2.96;72.97;100110.52;1664355;84;21270;-58
2023/03/29 12:13:42;;;;;;;7.25;4.60;;;;;;;2.97;72.88;100114.91;1645872;86;21311;-56
2023/03/29 12:17:05;;;;;;;4.92;3.55;;;;;;;2.96;72.83;100111.86;1680975;83;21203;-57
2023/03/29 12:20:30;;;;;;;6.22;4.37;;;;;;;2.98;72.87;100128.30;1649585;84;21248;-57
2023/03/29 12:23:39;;;;;;;5.95;3.67;;;;;;;3.01;72.84;100135.30;1684671;83;21502;-57
2023/03/29 12:26:59;;;;;;;5.40;4.15;;;;;;;2.98;72.71;100134.22;1688639;84;21208;-58
2023/03/29 12:30:18;;;;;;;6.47;4.30;;;;;;;2.93;72.69;100129.70;1684725;85;21228;-57
2023/03/29 12:33:58;;;;;;;6.10;4.45;;;;;;;2.92;72.67;100148.25;1690508;84;21405;-58
2023/03/29 12:37:49;;;;;;;11.55;7.90;;;;;;;2.96;72.75;100157.82;1680784;84;21279;-56
2023/03/29 12:41:20;;;;;;;7.17;5.00;;;;;;;3.02;72.78;100161.33;1690925;83;21223;-56
2023/03/29 12:44:44;;;;;;;7.78;4.67;;;;;;;3.03;72.70;100172.50;1664670;84;21227;-58
2023/03/29 12:47:52;;;;;;;6.00;4.12;;;;;;;2.99;72.64;100161.61;1691852;84;21240;-57
2023/03/29 12:51:02;;;;;;;6.25;5.28;;;;;;;3.00;72.66;100178.17;1668017;84;21886;-57
2023/03/29 12:54:25;;;;;;;5.55;4.12;;;;;;;2.99;72.62;100167.02;1693741;84;21259;-57
2023/03/29 12:57:36;;;;;;;10.35;6.05;;;;;;;2.98;72.59;100184.23;1662319;85;21248;-58
2023/03/29 13:00:50;;;;;;;8.05;4.97;;;;;;;2.98;72.61;100188.29;1660743;84;21286;-58
2023/03/29 13:04:27;;;;;;;7.10;5.08;;;;;;;3.01;72.65;100191.56;1658330;86;21228;-58
2023/03/29 13:07:39;;;;;;;7.45;5.25;;;;;;;2.99;72.57;100199.45;1654329;85;21240;-57
2023/03/29 13:10:49;;;;;;;7.15;5.62;;;;;;;3.00;72.58;100202.50;1657975;86;21786;-57
2023/03/29 13:13:57;;;;;;;11.90;5.70;;;;;;;3.00;72.52;100207.91;1677896;84;21561;-56
2023/03/29 13:17:10;;;;;;;7.17;4.90;;;;;;;2.99;72.52;100204.86;1649094;86;21229;-56
2023/03/29 13:20:32;;;;;;;8.23;4.90;;;;;;;3.01;72.50;100206.42;1693260;81;21235;-56
2023/03/29 13:24:15;;;;;;;13.30;8.63;;;;;;;2.95;72.36;100206.09;1665001;85;21223;-57
2023/03/29 13:27:51;;;;;;;11.68;8.50;;;;;;;2.89;72.29;100203.93;1685579;84;21859;-57
2023/03/29 13:31:06;;;;;;;10.13;5.72;;;;;;;2.90;72.42;100197.55;1692585;83;21254;-57
2023/03/29 13:35:10;;;;;;;9.35;5.75;;;;;;;2.94;72.48;100198.98;1691008;84;21203;-58
2023/03/29 13:38:30;;;;;;;12.43;6.65;;;;;;;2.95;72.44;100199.34;1694482;84;21804;-57
2023/03/29 13:41:50;;;;;;;12.45;7.08;;;;;;;2.92;72.33;100201.83;1693746;83;21788;-57
2023/03/29 13:44:59;;;;;;;;;;;;;;;2.94;72.37;100200.34;1701400;83;21293;-56
2023/03/29 13:48:28;;;;;;;14.95;9.48;;;;;;;2.90;72.29;100198.91;1676833;84;20223;-56
2023/03/29 13:51:46;;;;;;;11.88;6.78;;;;;;;2.87;72.28;100205.41;1678402;84;21228;-56
2023/03/29 13:55:09;;;;;;;9.63;6.45;;;;;;;2.88;72.33;100209.85;1695970;84;21204;-56
2023/03/29 13:58:42;;;;;;;8.50;5.37;;;;;;;2.86;72.29;100212.30;1692205;83;21223;-57
2023/03/29 14:01:59;;;;;;;6.70;4.67;;;;;;;2.81;72.18;100220.81;1698631;83;21235;-56
2023/03/29 14:05:06;;;;;;;14.90;7.35;;;;;;;2.75;72.17;100223.17;1690680;83;21224;-56
2023/03/29 14:08:36;;;;;;;8.43;5.55;;;;;;;2.69;72.10;100215.59;1696513;84;21251;-56
2023/03/29 14:11:42;;;;;;;9.18;5.90;;;;;;;2.65;72.11;100220.88;1659971;85;21344;-57
2023/03/29 14:14:50;;;;;;;7.40;4.53;;;;;;;2.61;72.09;100232.95;1691074;83;21215;-56
2023/03/29 14:18:03;;;;;;;18.48;10.53;;;;;;;2.56;72.12;100241.92;1705899;83;21267;-58
2023/03/29 14:21:09;;;;;;;15.95;8.50;;;;;;;2.59;72.18;100251.13;1674810;83;21878;-59
2023/03/29 14:24:19;;;;;;;12.73;7.33;;;;;;;2.61;72.26;100245.97;1710778;83;21241;-58
2023/03/29 14:27:26;;;;;;;7.55;5.33;;;;;;;2.65;72.29;100247.90;1692970;83;21235;-58
2023/03/29 14:30:35;;;;;;;14.55;8.45;;;;;;;2.68;72.26;100239.05;1682917;84;21203;-58
2023/03/29 14:33:41;;;;;;;20.52;11.03;;;;;;;2.70;72.25;100243.84;1644169;85;21224;-58
2023/03/29 14:36:52;;;;;;;10.18;6.28;;;;;;;2.74;72.27;100245.80;1635341;86;21256;-57
2023/03/29 14:39:58;;;;;;;15.00;7.83;;;;;;;2.77;72.28;100265.80;1611873;87;21244;-58
2023/03/29 14:43:10;;;;;;;11.95;7.17;;;;;;;2.75;72.18;100240.25;1666308;86;21733;-56
2023/03/29 14:46:16;;;;;;;8.10;6.08;;;;;;;2.76;72.20;100237.91;1692795;83;21267;-56
2023/03/29 14:49:25;;;;;;;8.93;6.12;;;;;;;2.72;72.08;100267.55;1666170;85;21215;-56
2023/03/29 14:52:30;;;;;;;8.48;4.62;;;;;;;2.67;72.02;100257.61;1684021;84;21207;-57
2023/03/29 14:55:37;;;;;;;7.37;5.47;;;;;;;2.61;72.00;100251.86;1692673;83;21263;-56
2023/03/29 14:58:45;;;;;;;7.33;5.22;;;;;;;2.61;72.05;100258.13;1654554;86;21205;-56
2023/03/29 15:01:51;;;;;;;8.48;5.85;;;;;;;2.61;72.07;100262.19;1687530;84;21352;-56
2023/03/29 15:05:11;;;;;;;7.85;5.62;;;;;;;2.61;72.05;100250.03;1665336;84;21286;-55
2023/03/29 15:08:41;;;;;;;7.47;5.42;;;;;;;2.60;72.07;100256.39;1665642;85;21219;-56
2023/03/29 15:11:48;;;;;;;6.83;5.12;;;;;;;2.61;72.08;100260.83;1616095;88;21821;-57
2023/03/29 15:14:56;;;;;;;10.10;6.47;;;;;;;2.63;72.10;100261.54;1665955;85;21279;-57
2023/03/29 15:18:01;;;;;;;12.37;7.03;;;;;;;2.64;72.07;100259.70;1651879;85;21251;-57
2023/03/29 15:21:07;;;;;;;6.97;5.12;;;;;;;2.63;72.04;100264.75;1630204;86;21357;-57